Azalea, Oregon
Current Conditions -  °F | °C
As of 11:59 PM on Saturday 25 Oct 2014 (Local Time) from KSXT Reporting Station
Haze Haze  
Wind Chill: 29°   Ceiling: 1500
Heat Index: 37°   Visibility: 1mi
Dew Point: 37°   Wind: 13mph
Humidity: 100%   Direction: 190°S
Pressure: 30.05"   Gusts: 20mph
Location:  42.8°N, 123.26°W
Report Text: KSXT 260659Z AUTO 19011G17KT 1SM BR FEW002 BKN015 OVC038 03/03 A3005 RMK AO2 T00280028
Loading
Personal Weather Stations






























Interactive Weather Map
Tropical Storm Tracking
New forecast layout! Learn more

10-Day Weather Forecast

Advertisements
Track Severe Weather on mobile